Time,TemperatureF,DewpointF,PressureIn,WindDirection,WindDirectionDegrees,WindSpeedMPH,WindSpeedGustMPH,Humidity,HourlyPrecipIn,Conditions,Clouds,dailyrainin,SoftwareType,DateUTC
2013-09-03 07:50:00,62.0,62.0,29.99,NNE,22,0.0,3.0,100,0.00,,,0.00,Weather View 32 v70,2013-09-03 11:50:00,
2013-09-03 08:00:00,64.0,64.0,29.99,North,360,0.0,5.0,100,0.00,,,0.00,Weather View 32 v70,2013-09-03 12:00:00,
2013-09-03 08:10:00,65.0,65.0,29.99,NNE,22,2.0,7.0,100,0.00,,,0.00,Weather View 32 v70,2013-09-03 12:10:00,
2013-09-03 08:20:00,67.0,67.0,29.98,North,360,0.0,7.0,100,0.00,,,0.00,Weather View 32 v70,2013-09-03 12:20:00,
2013-09-03 08:30:00,68.0,68.0,29.98,North,360,3.0,11.0,100,0.00,,,0.00,Weather View 32 v70,2013-09-03 12:30:00,
2013-09-03 08:40:00,68.0,68.0,29.98,NNE,22,2.0,11.0,100,0.00,,,0.00,Weather View 32 v70,2013-09-03 12:40:00,
2013-09-03 08:46:00,69.0,68.7,29.98,NNE,22,0.0,11.0,99,0.00,,,0.00,Weather View 32 v70,2013-09-03 12:46:00,
2013-09-03 08:55:00,69.0,69.0,29.98,NNE,22,2.0,11.0,100,0.00,,,0.00,Weather View 32 v70,2013-09-03 12:55:00,
2013-09-03 09:00:00,69.0,68.4,29.98,North,360,0.0,11.0,98,0.00,,,0.00,Weather View 32 v70,2013-09-03 13:00:00,
2013-09-03 09:10:00,70.0,68.8,29.98,NNE,22,4.0,11.0,96,0.00,,,0.00,Weather View 32 v70,2013-09-03 13:10:00,
2013-09-03 09:15:00,70.0,69.1,29.98,North,360,0.0,11.0,97,0.00,,,0.00,Weather View 32 v70,2013-09-03 13:15:00,
2013-09-03 09:25:00,71.0,69.5,29.98,NE,45,5.0,11.0,95,0.00,,,0.00,Weather View 32 v70,2013-09-03 13:25:00,
2013-09-03 09:35:00,70.0,68.8,29.98,NNE,22,4.0,11.0,96,0.00,,,0.00,Weather View 32 v70,2013-09-03 13:35:00,
2013-09-03 09:40:00,71.0,68.5,29.98,NW,315,0.0,11.0,92,0.00,,,0.00,Weather View 32 v70,2013-09-03 13:40:00,
2013-09-03 09:47:00,72.0,69.5,29.98,North,360,4.0,11.0,92,0.00,,,0.00,Weather View 32 v70,2013-09-03 13:47:00,
2013-09-03 09:55:00,74.0,66.3,29.98,NNE,22,4.0,11.0,77,0.00,,,0.00,Weather View 32 v70,2013-09-03 13:55:00,
2013-09-03 10:00:00,73.0,68.5,29.98,NE,45,0.0,11.0,86,0.00,,,0.00,Weather View 32 v70,2013-09-03 14:00:00,
2013-09-03 10:05:00,74.0,69.5,29.98,NNW,337,0.0,11.0,86,0.00,,,0.00,Weather View 32 v70,2013-09-03 14:05:00,
2013-09-03 10:10:00,74.0,68.1,29.98,NNE,22,0.0,11.0,82,0.00,,,0.00,Weather View 32 v70,2013-09-03 14:10:00,
2013-09-03 10:20:00,74.0,66.7,29.98,ENE,67,4.0,11.0,78,0.00,,,0.00,Weather View 32 v70,2013-09-03 14:20:00,
2013-09-03 10:25:00,74.0,68.8,29.98,NNW,337,0.0,11.0,84,0.00,,,0.00,Weather View 32 v70,2013-09-03 14:25:00,
2013-09-03 10:30:00,74.0,68.1,29.98,NNE,22,0.0,10.0,82,0.00,,,0.00,Weather View 32 v70,2013-09-03 14:30:00,
2013-09-03 10:40:00,74.0,67.8,29.98,NNE,22,0.0,8.0,81,0.00,,,0.00,Weather View 32 v70,2013-09-03 14:40:00,
2013-09-03 10:45:00,75.0,65.7,29.98,NE,45,0.0,8.0,73,0.00,,,0.00,Weather View 32 v70,2013-09-03 14:45:00,
2013-09-03 10:55:00,75.0,67.6,29.98,NE,45,0.0,8.0,78,0.00,,,0.00,Weather View 32 v70,2013-09-03 14:55:00,
2013-09-03 11:00:00,76.0,67.9,29.98,NNE,22,0.0,8.0,76,0.00,,,0.00,Weather View 32 v70,2013-09-03 15:00:00,
2013-09-03 11:10:00,78.0,69.0,29.98,North,360,0.0,8.0,74,0.00,,,0.00,Weather View 32 v70,2013-09-03 15:10:00,
2013-09-03 11:15:00,78.0,68.2,29.97,North,360,0.0,8.0,72,0.00,,,0.00,Weather View 32 v70,2013-09-03 15:15:00,
2013-09-03 11:20:00,79.0,69.2,29.97,West,270,0.0,8.0,72,0.00,,,0.00,Weather View 32 v70,2013-09-03 15:20:00,
2013-09-03 11:25:00,79.0,67.9,29.97,North,360,0.0,8.0,69,0.00,,,0.00,Weather View 32 v70,2013-09-03 15:25:00,
2013-09-03 11:35:00,78.0,65.7,29.97,NE,45,0.0,8.0,66,0.00,,,0.00,Weather View 32 v70,2013-09-03 15:35:00,
2013-09-03 11:45:00,79.0,67.9,29.97,NW,315,0.0,0.0,69,0.00,,,0.00,Weather View 32 v70,2013-09-03 15:45:00,
2013-09-03 11:50:00,79.0,70.0,29.97,WNW,292,0.0,0.0,74,0.00,,,0.00,Weather View 32 v70,2013-09-03 15:50:00,
2013-09-03 11:55:00,79.0,65.3,29.97,NE,45,0.0,0.0,63,0.00,,,0.00,Weather View 32 v70,2013-09-03 15:55:00,
2013-09-03 12:05:00,80.0,66.7,29.97,NE,45,0.0,0.0,64,0.00,,,0.00,Weather View 32 v70,2013-09-03 16:05:00,
2013-09-03 12:10:00,78.0,65.7,29.97,NE,45,0.0,0.0,66,0.00,,,0.00,Weather View 32 v70,2013-09-03 16:10:00,
2013-09-03 12:20:00,79.0,67.9,29.97,North,360,0.0,0.0,69,0.00,,,0.00,Weather View 32 v70,2013-09-03 16:20:00,
2013-09-03 12:30:00,81.0,66.2,29.97,West,270,0.0,0.0,61,0.00,,,0.00,Weather View 32 v70,2013-09-03 16:30:00,
2013-09-03 12:40:00,80.0,66.2,29.97,North,360,0.0,0.0,63,0.00,,,0.00,Weather View 32 v70,2013-09-03 16:40:00,
2013-09-03 12:48:00,80.0,68.0,29.97,West,270,0.0,0.0,67,0.00,,,0.00,Weather View 32 v70,2013-09-03 16:48:00,
2013-09-03 12:55:00,79.0,66.6,29.97,NW,315,0.0,0.0,66,0.00,,,0.00,Weather View 32 v70,2013-09-03 16:55:00,
2013-09-03 13:05:00,80.0,68.0,29.97,NW,315,0.0,0.0,67,0.00,,,0.00,Weather View 32 v70,2013-09-03 17:05:00,
2013-09-03 13:10:00,80.0,66.7,29.97,West,270,0.0,0.0,64,0.00,,,0.00,Weather View 32 v70,2013-09-03 17:10:00,
2013-09-03 13:20:00,79.0,66.2,29.97,North,360,0.0,7.0,65,0.00,,,0.00,Weather View 32 v70,2013-09-03 17:20:00,
2013-09-03 13:25:00,78.0,66.5,29.97,NNE,22,0.0,7.0,68,0.00,,,0.00,Weather View 32 v70,2013-09-03 17:25:00,
2013-09-03 13:35:00,81.0,67.6,29.96,NW,315,0.0,7.0,64,0.00,,,0.00,Weather View 32 v70,2013-09-03 17:35:00,
2013-09-03 13:45:00,82.0,67.6,29.96,West,270,0.0,7.0,62,0.00,,,0.00,Weather View 32 v70,2013-09-03 17:45:00,
2013-09-03 13:50:00,81.0,66.7,29.96,North,360,0.0,7.0,62,0.00,,,0.00,Weather View 32 v70,2013-09-03 17:50:00,
2013-09-03 14:00:00,79.0,67.1,29.97,NNW,337,0.0,7.0,67,0.00,,,0.00,Weather View 32 v70,2013-09-03 18:00:00,
2013-09-03 14:05:00,79.0,65.7,29.97,West,270,0.0,7.0,64,0.00,,,0.00,Weather View 32 v70,2013-09-03 18:05:00,
2013-09-03 14:15:00,79.0,66.2,29.97,NE,45,0.0,7.0,65,0.00,,,0.00,Weather View 32 v70,2013-09-03 18:15:00,
2013-09-03 14:20:00,80.0,68.0,29.97,NNW,337,0.0,7.0,67,0.00,,,0.00,Weather View 32 v70,2013-09-03 18:20:00,
2013-09-03 14:30:00,80.0,67.6,29.96,NNW,337,0.0,0.0,66,0.00,,,0.00,Weather View 32 v70,2013-09-03 18:30:00,
2013-09-03 14:35:00,80.0,68.0,29.96,North,360,0.0,0.0,67,0.00,,,0.00,Weather View 32 v70,2013-09-03 18:35:00,
2013-09-03 14:45:00,80.0,67.1,29.96,North,360,0.0,0.0,65,0.00,,,0.00,Weather View 32 v70,2013-09-03 18:45:00,
2013-09-03 14:50:00,80.0,67.1,29.96,North,360,0.0,0.0,65,0.00,,,0.00,Weather View 32 v70,2013-09-03 18:50:00,
2013-09-03 14:55:00,78.0,66.5,29.96,NE,45,0.0,0.0,68,0.00,,,0.00,Weather View 32 v70,2013-09-03 18:55:00,
2013-09-03 15:05:00,80.0,67.6,29.96,North,360,0.0,8.0,66,0.00,,,0.00,Weather View 32 v70,2013-09-03 19:05:00,
2013-09-03 15:10:00,80.0,66.2,29.96,NW,315,0.0,8.0,63,0.00,,,0.00,Weather View 32 v70,2013-09-03 19:10:00,
2013-09-03 15:20:00,80.0,67.1,29.95,SW,225,0.0,8.0,65,0.00,,,0.00,Weather View 32 v70,2013-09-03 19:20:00,
2013-09-03 15:30:00,80.0,66.2,29.95,West,270,0.0,8.0,63,0.00,,,0.00,Weather View 32 v70,2013-09-03 19:30:00,
2013-09-03 15:40:00,82.0,67.2,29.94,North,360,0.0,8.0,61,0.00,,,0.00,Weather View 32 v70,2013-09-03 19:40:00,
2013-09-03 15:45:00,81.0,66.2,29.95,SW,225,0.0,8.0,61,0.00,,,0.00,Weather View 32 v70,2013-09-03 19:45:00,
2013-09-03 15:50:00,80.0,66.2,29.95,NW,315,0.0,8.0,63,0.00,,,0.00,Weather View 32 v70,2013-09-03 19:50:00,
2013-09-03 16:00:00,79.0,64.8,29.95,SW,225,0.0,8.0,62,0.00,,,0.00,Weather View 32 v70,2013-09-03 20:00:00,
2013-09-03 16:05:00,78.0,64.8,29.95,NNW,337,3.0,8.0,64,0.00,,,0.00,Weather View 32 v70,2013-09-03 20:05:00,
2013-09-03 16:15:00,81.0,67.6,29.95,NE,45,0.0,10.0,64,0.00,,,0.00,Weather View 32 v70,2013-09-03 20:15:00,
2013-09-03 16:25:00,82.0,66.2,29.94,NNE,22,0.0,10.0,59,0.00,,,0.00,Weather View 32 v70,2013-09-03 20:25:00,
2013-09-03 16:35:00,80.0,65.3,29.94,NW,315,0.0,10.0,61,0.00,,,0.00,Weather View 32 v70,2013-09-03 20:35:00,
2013-09-03 16:40:00,79.0,66.2,29.94,NW,315,4.0,10.0,65,0.00,,,0.00,Weather View 32 v70,2013-09-03 20:40:00,
2013-09-03 16:50:00,81.0,65.8,29.94,NE,45,0.0,10.0,60,0.00,,,0.00,Weather View 32 v70,2013-09-03 20:50:00,
2013-09-03 17:00:00,82.0,65.2,29.94,WNW,292,0.0,10.0,57,0.00,,,0.00,Weather View 32 v70,2013-09-03 21:00:00,
2013-09-03 17:05:00,83.0,67.1,29.94,NW,315,0.0,10.0,59,0.00,,,0.00,Weather View 32 v70,2013-09-03 21:05:00,
2013-09-03 17:15:00,82.0,66.2,29.94,North,360,0.0,7.0,59,0.00,,,0.00,Weather View 32 v70,2013-09-03 21:15:00,
2013-09-03 17:20:00,81.0,65.3,29.94,North,360,0.0,10.0,59,0.00,,,0.00,Weather View 32 v70,2013-09-03 21:20:00,
2013-09-03 17:30:00,80.0,64.3,29.94,WSW,247,0.0,10.0,59,0.00,,,0.00,Weather View 32 v70,2013-09-03 21:30:00,
2013-09-03 17:40:00,79.0,64.8,29.95,North,360,0.0,10.0,62,0.00,,,0.00,Weather View 32 v70,2013-09-03 21:40:00,
2013-09-03 17:45:00,78.0,62.9,29.95,NW,315,0.0,10.0,60,0.00,,,0.00,Weather View 32 v70,2013-09-03 21:45:00,
2013-09-03 17:51:00,78.0,64.3,29.95,NW,315,0.0,10.0,63,0.00,,,0.00,Weather View 32 v70,2013-09-03 21:51:00,
2013-09-03 18:00:00,78.0,64.8,29.95,WNW,292,0.0,10.0,64,0.00,,,0.00,Weather View 32 v70,2013-09-03 22:00:00,
2013-09-03 18:05:00,77.0,64.3,29.96,NNW,337,0.0,10.0,65,0.00,,,0.00,Weather View 32 v70,2013-09-03 22:05:00,
2013-09-03 18:15:00,76.0,64.2,29.96,North,360,0.0,10.0,67,0.00,,,0.00,Weather View 32 v70,2013-09-03 22:15:00,
2013-09-03 18:20:00,75.0,63.3,29.96,NW,315,0.0,5.0,67,0.00,,,0.00,Weather View 32 v70,2013-09-03 22:20:00,
2013-09-03 18:30:00,75.0,63.7,29.96,NNW,337,0.0,5.0,68,0.00,,,0.00,Weather View 32 v70,2013-09-03 22:30:00,
2013-09-03 18:40:00,74.0,62.7,29.97,North,360,0.0,5.0,68,0.00,,,0.00,Weather View 32 v70,2013-09-03 22:40:00,
2013-09-03 18:50:00,73.0,60.9,29.97,NNW,337,0.0,5.0,66,0.00,,,0.00,Weather View 32 v70,2013-09-03 22:50:00,
2013-09-03 19:00:00,72.0,60.8,29.97,North,360,0.0,5.0,68,0.00,,,0.00,Weather View 32 v70,2013-09-03 23:00:00,
2013-09-03 19:05:00,72.0,60.8,29.98,North,360,0.0,5.0,68,0.00,,,0.00,Weather View 32 v70,2013-09-03 23:05:00,
2013-09-03 19:15:00,71.0,61.5,29.98,North,360,0.0,5.0,72,0.00,,,0.00,Weather View 32 v70,2013-09-03 23:15:00,
2013-09-03 19:25:00,71.0,61.9,29.98,NE,45,0.0,5.0,73,0.00,,,0.00,Weather View 32 v70,2013-09-03 23:25:00,
2013-09-03 19:30:00,70.0,61.3,29.98,North,360,0.0,5.0,74,0.00,,,0.00,Weather View 32 v70,2013-09-03 23:30:00,
2013-09-03 19:40:00,69.0,60.7,29.98,NNW,337,0.0,3.0,75,0.00,,,0.00,Weather View 32 v70,2013-09-03 23:40:00,
2013-09-03 19:50:00,68.0,60.9,29.99,NNW,337,0.0,0.0,78,0.00,,,0.00,Weather View 32 v70,2013-09-03 23:50:00,
2013-09-03 19:55:00,68.0,61.6,30.00,North,360,0.0,0.0,80,0.00,,,0.00,Weather View 32 v70,2013-09-03 23:55:00,
2013-09-03 20:05:00,67.0,61.6,30.00,North,360,0.0,0.0,83,0.00,,,0.00,Weather View 32 v70,2013-09-04 00:05:00,
2013-09-03 20:15:00,65.0,60.4,30.02,North,360,0.0,0.0,85,0.00,,,0.00,Weather View 32 v70,2013-09-04 00:15:00,
2013-09-03 20:20:00,65.0,61.0,30.02,North,360,0.0,0.0,87,0.00,,,0.00,Weather View 32 v70,2013-09-04 00:20:00,
2013-09-03 20:30:00,64.0,61.3,30.02,North,360,0.0,0.0,91,0.00,,,0.00,Weather View 32 v70,2013-09-04 00:30:00,
2013-09-03 20:40:00,63.0,60.6,30.02,North,360,0.0,0.0,92,0.00,,,0.00,Weather View 32 v70,2013-09-04 00:40:00,
2013-09-03 20:45:00,63.0,61.2,30.03,North,360,0.0,0.0,94,0.00,,,0.00,Weather View 32 v70,2013-09-04 00:45:00,
2013-09-03 20:53:00,62.0,60.8,30.03,North,360,0.0,0.0,96,0.00,,,0.00,Weather View 32 v70,2013-09-04 00:53:00,
2013-09-03 21:00:00,62.0,61.1,30.03,North,360,0.0,0.0,97,0.00,,,0.00,Weather View 32 v70,2013-09-04 01:00:00,
2013-09-03 21:10:00,61.0,60.7,30.03,North,360,0.0,0.0,99,0.00,,,0.00,Weather View 32 v70,2013-09-04 01:10:00,
2013-09-03 21:20:00,61.0,61.0,30.04,North,360,0.0,0.0,100,0.00,,,0.00,Weather View 32 v70,2013-09-04 01:20:00,
2013-09-03 21:25:00,62.0,62.0,30.04,North,360,0.0,0.0,100,0.00,,,0.00,Weather View 32 v70,2013-09-04 01:25:00,
2013-09-03 21:30:00,62.0,62.0,30.04,North,360,0.0,0.0,100,0.00,,,0.00,Weather View 32 v70,2013-09-04 01:30:00,
2013-09-03 21:40:00,62.0,62.0,30.05,North,360,0.0,0.0,100,0.00,,,0.00,Weather View 32 v70,2013-09-04 01:40:00,
2013-09-03 21:50:00,62.0,62.0,30.06,North,360,0.0,0.0,100,0.00,,,0.00,Weather View 32 v70,2013-09-04 01:50:00,